createdAt,value
2018-11-23T00:01:06.194Z,40.57
2018-11-23T00:03:52.629Z,38.30
2018-11-23T00:06:39.178Z,41.90
2018-11-23T00:09:25.736Z,39.17
2018-11-23T00:12:12.302Z,38.00
2018-11-23T00:14:58.842Z,39.53
2018-11-23T00:17:45.397Z,35.00
2018-11-23T00:20:31.941Z,34.20
2018-11-23T00:23:18.493Z,39.67
2018-11-23T00:26:04.911Z,38.27
2018-11-23T00:28:51.349Z,37.67
2018-11-23T00:31:37.898Z,40.67
2018-11-23T00:34:24.453Z,35.27
2018-11-23T00:37:10.945Z,32.43
2018-11-23T00:39:57.496Z,33.10
2018-11-23T00:42:44.050Z,35.73
2018-11-23T00:45:30.605Z,34.43
2018-11-23T00:48:17.158Z,36.13
2018-11-23T00:51:03.702Z,35.93
2018-11-23T00:53:50.259Z,38.17
2018-11-23T00:56:36.816Z,35.80
2018-11-23T00:59:23.363Z,35.67
2018-11-23T01:02:09.904Z,35.47
2018-11-23T01:04:56.467Z,35.77
2018-11-23T01:07:43.531Z,35.13
2018-11-23T01:10:30.338Z,38.27
2018-11-23T01:13:16.917Z,35.07
2018-11-23T01:16:03.486Z,37.17
2018-11-23T01:18:50.046Z,38.40
2018-11-23T01:21:36.590Z,35.23
2018-11-23T01:24:23.153Z,33.43
2018-11-23T01:27:09.701Z,37.40
2018-11-23T01:29:56.277Z,33.57
2018-11-23T01:32:42.821Z,33.97
2018-11-23T01:35:29.391Z,38.50
2018-11-23T01:38:15.943Z,31.43
2018-11-23T01:41:02.537Z,34.10
2018-11-23T01:43:49.078Z,32.87
2018-11-23T01:46:35.700Z,35.63
2018-11-23T01:49:22.250Z,40.27
2018-11-23T01:52:08.817Z,42.00
2018-11-23T01:54:55.383Z,34.43
2018-11-23T01:57:42.221Z,33.67
2018-11-23T02:00:28.776Z,36.57
2018-11-23T02:03:15.311Z,34.87
2018-11-23T02:06:01.871Z,43.27
2018-11-23T02:08:48.875Z,40.03
2018-11-23T02:11:35.477Z,34.63
2018-11-23T02:14:21.975Z,42.27
2018-11-23T02:17:08.529Z,41.97
2018-11-23T02:19:56.101Z,40.33
2018-11-23T02:22:42.689Z,56.63
2018-11-23T02:25:29.245Z,63.13
2018-11-23T02:28:15.788Z,63.73
2018-11-23T02:31:21.861Z,63.33
2018-11-23T02:34:08.280Z,59.80
2018-11-23T02:36:35.100Z,62.03
2018-11-23T02:39:21.641Z,64.23
2018-11-23T02:42:08.189Z,65.53
2018-11-23T02:44:54.732Z,59.43
2018-11-23T02:47:42.093Z,61.43
2018-11-23T02:50:28.649Z,64.53
2018-11-23T02:53:15.186Z,60.07
2018-11-23T02:56:01.762Z,62.23
2018-11-23T02:58:48.305Z,63.00
2018-11-23T03:01:34.865Z,59.83
2018-11-23T03:04:21.410Z,58.73
2018-11-23T03:07:07.959Z,64.97
2018-11-23T03:09:54.502Z,61.67
2018-11-23T03:12:41.429Z,62.50
2018-11-23T03:15:27.976Z,57.17
2018-11-23T03:18:14.555Z,58.57
2018-11-23T03:21:01.098Z,58.03
2018-11-23T03:23:47.640Z,59.87
2018-11-23T03:26:34.189Z,60.07
2018-11-23T03:29:20.752Z,58.00
2018-11-23T03:32:07.311Z,59.07
2018-11-23T03:34:53.854Z,57.67
2018-11-23T03:37:40.410Z,60.57
2018-11-23T03:40:26.967Z,57.50
2018-11-23T03:43:13.535Z,62.97
2018-11-23T03:46:00.083Z,65.17
2018-11-23T03:48:46.642Z,54.10
2018-11-23T03:51:33.192Z,57.47
2018-11-23T03:54:19.758Z,58.67
2018-11-23T03:57:06.316Z,59.60
2018-11-23T03:59:53.194Z,58.23
2018-11-23T04:02:39.735Z,60.27
2018-11-23T04:05:26.306Z,62.67
2018-11-23T04:08:12.862Z,62.03
2018-11-23T04:10:59.411Z,56.10
2018-11-23T04:13:45.978Z,59.53
2018-11-23T04:16:32.597Z,57.30
2018-11-23T04:19:19.157Z,63.03
2018-11-23T04:22:05.698Z,57.57
2018-11-23T04:24:52.262Z,56.50
2018-11-23T04:27:38.964Z,62.03
2018-11-23T04:30:25.520Z,58.73
2018-11-23T04:33:12.074Z,59.93
2018-11-23T04:35:58.634Z,60.67
2018-11-23T04:38:45.203Z,64.00
2018-11-23T04:41:31.751Z,63.73
2018-11-23T04:44:18.312Z,59.60
2018-11-23T05:14:00.729Z,67.27
2018-11-23T05:16:38.092Z,62.03
2018-11-23T07:06:35.741Z,52.60
2018-11-23T07:09:04.001Z,52.60
2018-11-23T07:11:30.947Z,55.27
2018-11-23T07:14:03.865Z,54.77
2018-11-23T07:16:24.685Z,60.00
2018-11-23T07:18:51.613Z,66.27
2018-11-23T07:21:21.530Z,56.83
2018-11-23T07:23:45.452Z,53.00
2018-11-23T07:26:12.253Z,52.27
2018-11-23T07:28:39.074Z,54.40
2018-11-23T07:31:06.000Z,56.37
2018-11-23T07:33:32.802Z,54.17
2018-11-23T07:35:59.615Z,51.63
2018-11-23T07:38:26.410Z,58.50
2018-11-23T07:41:11.951Z,51.77
2018-11-23T07:43:38.752Z,52.57
2018-11-23T07:46:05.764Z,52.93
2018-11-23T07:48:32.568Z,49.90
2018-11-23T07:50:59.505Z,50.40
2018-11-23T07:53:26.438Z,45.10
2018-11-23T07:55:53.289Z,47.33
2018-11-23T07:58:20.203Z,51.23
2018-11-23T08:00:47.294Z,43.07
2018-11-23T08:03:14.108Z,49.60
2018-11-23T08:05:40.922Z,48.77
2018-11-23T08:08:07.742Z,45.80
2018-11-23T08:10:34.204Z,43.73
2018-11-23T08:13:01.122Z,42.10
2018-11-23T08:15:28.270Z,40.43
2018-11-23T08:17:55.090Z,45.30
2018-11-23T08:20:23.284Z,46.87
2018-11-23T08:22:50.265Z,44.17
2018-11-23T08:25:18.330Z,44.80
2018-11-23T08:27:46.183Z,50.63
2018-11-23T08:30:27.566Z,44.57
2018-11-23T08:32:54.604Z,44.17
2018-11-23T08:35:21.537Z,46.40
2018-11-23T08:37:48.401Z,48.67
2018-11-23T08:40:19.742Z,57.53
2018-11-23T08:42:47.514Z,43.53
2018-11-23T08:45:15.680Z,42.80
2018-11-23T08:47:42.494Z,48.37
2018-11-23T08:50:10.683Z,48.60
2018-11-23T08:52:37.644Z,50.63
2018-11-23T08:55:04.752Z,53.73
2018-11-23T08:57:31.568Z,48.20
2018-11-23T08:59:58.372Z,54.90
2018-11-23T09:02:25.200Z,46.63
2018-11-23T09:04:52.001Z,50.30
2018-11-23T09:07:18.801Z,49.00
2018-11-23T09:09:45.610Z,53.33
2018-11-23T09:12:12.431Z,47.47
2018-11-23T09:14:39.668Z,49.47
2018-11-23T09:17:06.580Z,50.27
2018-11-23T09:19:33.546Z,52.37
2018-11-23T09:22:00.468Z,55.93
2018-11-23T09:24:27.395Z,48.03
2018-11-23T09:26:54.202Z,57.80
2018-11-23T09:29:21.608Z,61.83
2018-11-23T09:31:48.794Z,59.30
2018-11-23T09:34:15.602Z,56.10
2018-11-23T09:36:42.393Z,54.73
2018-11-23T09:39:09.534Z,65.03
2018-11-23T09:41:36.457Z,57.87
2018-11-23T09:44:03.647Z,61.80
2018-11-23T09:46:30.449Z,56.53
2018-11-23T09:48:57.388Z,63.10
2018-11-23T09:51:24.310Z,54.10
2018-11-23T09:53:51.126Z,54.60
2018-11-23T09:56:17.917Z,54.67
2018-11-23T09:58:44.723Z,59.50
2018-11-23T10:01:11.537Z,52.10
2018-11-23T10:03:38.557Z,56.77
2018-11-23T10:06:05.364Z,51.90
2018-11-23T10:08:37.144Z,49.60
2018-11-23T10:10:59.007Z,56.80
2018-11-23T10:13:25.941Z,59.50
2018-11-23T10:15:52.868Z,62.27
2018-11-23T10:18:20.135Z,55.40
2018-11-23T10:20:47.052Z,57.93
2018-11-23T10:23:13.969Z,56.50
2018-11-23T10:25:40.901Z,55.80
2018-11-23T10:28:07.820Z,56.50
2018-11-23T10:30:35.630Z,55.00
2018-11-23T10:35:56.577Z,64.10
2018-11-23T10:38:23.723Z,63.80
2018-11-23T10:40:50.851Z,55.70
2018-11-23T10:43:18.004Z,55.93
2018-11-23T10:45:45.153Z,60.77
2018-11-23T10:48:12.336Z,53.53
2018-11-23T10:50:40.882Z,55.67
2018-11-23T10:53:08.061Z,52.60
2018-11-23T10:55:36.098Z,50.43
2018-11-23T10:58:04.195Z,47.57
2018-11-23T11:00:37.142Z,50.00
2018-11-23T11:03:10.302Z,50.00
2018-11-23T11:05:43.050Z,44.13
2018-11-23T11:08:10.253Z,48.93
2018-11-23T11:10:37.409Z,43.87
2018-11-23T11:13:04.609Z,50.83
2018-11-23T11:15:31.773Z,49.83
2018-11-23T11:17:58.959Z,43.53
2018-11-23T11:20:26.105Z,41.77
2018-11-23T11:22:53.274Z,45.30
2018-11-23T11:25:20.438Z,47.63
2018-11-23T11:27:47.559Z,46.30
2018-11-23T11:30:15.765Z,41.57
2018-11-23T11:32:43.302Z,43.77
2018-11-23T11:35:11.138Z,41.80
2018-11-23T11:37:38.445Z,43.33
2018-11-23T11:40:06.547Z,40.57
2018-11-23T11:42:33.785Z,44.53
2018-11-23T11:45:00.926Z,44.20
2018-11-23T11:47:28.087Z,44.53
2018-11-23T11:49:59.163Z,44.00
2018-11-23T11:52:22.396Z,38.37
2018-11-23T11:54:49.505Z,43.57
2018-11-23T11:57:16.689Z,45.50
2018-11-23T11:59:43.842Z,42.70
2018-11-23T12:02:11.005Z,39.43
2018-11-23T12:04:38.138Z,42.53
2018-11-23T12:07:05.449Z,39.00
2018-11-23T12:09:32.566Z,39.47
2018-11-23T12:11:59.722Z,38.03
2018-11-23T12:14:26.869Z,37.93
2018-11-23T12:16:54.033Z,40.50
2018-11-23T12:19:21.176Z,41.87
2018-11-23T12:21:48.344Z,41.20
2018-11-23T12:24:15.494Z,42.57
2018-11-23T12:26:42.609Z,39.13
2018-11-23T12:29:09.765Z,39.07
2018-11-23T12:31:36.921Z,37.60
2018-11-23T12:34:04.113Z,38.90
2018-11-23T12:36:31.264Z,35.87
2018-11-23T12:38:58.407Z,36.47
2018-11-23T12:41:25.569Z,40.63
2018-11-23T12:43:52.716Z,37.27
2018-11-23T12:46:19.888Z,36.23
2018-11-23T12:48:47.021Z,38.70
2018-11-23T12:51:14.162Z,34.73
2018-11-23T12:53:41.273Z,39.40
2018-11-23T12:56:08.405Z,42.23
2018-11-23T12:58:35.564Z,42.10
2018-11-23T13:01:02.700Z,39.93
2018-11-23T13:03:29.820Z,34.70
2018-11-23T13:05:57.005Z,36.73
2018-11-23T13:08:24.171Z,37.27
2018-11-23T13:10:51.465Z,37.27
2018-11-23T13:13:18.614Z,33.80
2018-11-23T13:15:45.757Z,35.40
2018-11-23T13:18:12.907Z,28.63
2018-11-23T13:20:40.058Z,33.67
2018-11-23T13:23:07.484Z,35.97
2018-11-23T13:25:34.625Z,31.80
2018-11-23T13:28:01.969Z,30.57
2018-11-23T13:30:30.580Z,35.60
2018-11-23T13:32:57.814Z,34.47
2018-11-23T13:35:25.025Z,34.47
2018-11-23T13:37:52.302Z,33.67
2018-11-23T13:40:20.812Z,32.77
2018-11-23T13:42:48.469Z,35.60
2018-11-23T13:45:17.153Z,32.70
2018-11-23T13:47:44.306Z,33.67
2018-11-23T13:50:12.885Z,34.83
2018-11-23T13:52:40.673Z,33.90
2018-11-23T13:55:07.988Z,38.37
2018-11-23T13:57:35.246Z,39.27
2018-11-23T14:00:02.716Z,39.47
2018-11-23T14:02:30.142Z,36.87
2018-11-23T14:04:57.290Z,34.67
2018-11-23T14:07:24.757Z,33.77
2018-11-23T14:09:52.062Z,37.67
2018-11-23T14:12:19.277Z,33.80
2018-11-23T14:14:46.510Z,37.07
2018-11-23T14:17:13.740Z,38.13
2018-11-23T14:19:41.004Z,36.77
2018-11-23T14:22:08.198Z,39.13
2018-11-23T14:24:35.459Z,35.70
2018-11-23T14:27:02.669Z,38.97
2018-11-23T14:29:29.773Z,40.27
2018-11-23T14:31:57.123Z,35.93
2018-11-23T14:34:24.542Z,38.70
2018-11-23T14:36:51.753Z,36.70
2018-11-23T14:39:19.038Z,40.47
2018-11-23T14:41:46.270Z,38.07
2018-11-23T14:44:13.514Z,37.43
2018-11-23T14:46:40.657Z,42.23
2018-11-23T14:49:07.878Z,41.30
2018-11-23T14:51:35.106Z,40.50
2018-11-23T14:54:02.334Z,40.73
2018-11-23T14:56:29.562Z,39.87
2018-11-23T14:58:56.785Z,41.60
2018-11-23T15:01:24.954Z,42.00
2018-11-23T15:03:52.193Z,36.73
2018-11-23T15:06:19.421Z,43.53
2018-11-23T15:08:46.629Z,43.53
2018-11-23T15:11:13.845Z,43.37
2018-11-23T15:13:40.985Z,44.40
2018-11-23T15:16:08.231Z,44.30
2018-11-23T15:18:35.447Z,43.83
2018-11-23T15:21:02.695Z,41.67
2018-11-23T15:23:29.893Z,39.00
2018-11-23T15:25:57.126Z,48.13
2018-11-23T15:28:24.275Z,45.10
2018-11-23T15:30:51.506Z,54.67
2018-11-23T15:33:18.718Z,53.80
2018-11-23T15:35:45.958Z,45.20
2018-11-23T15:38:14.134Z,50.17
2018-11-23T15:40:41.410Z,39.13
2018-11-23T15:43:10.143Z,43.30
2018-11-23T15:45:37.489Z,45.50
2018-11-23T15:48:05.121Z,43.60
2018-11-23T15:50:33.651Z,44.53
2018-11-23T15:53:00.886Z,42.27
2018-11-23T15:55:29.035Z,40.73
2018-11-23T15:57:57.803Z,45.17
2018-11-23T16:00:26.453Z,41.63
2018-11-23T16:02:53.677Z,37.97
2018-11-23T16:05:21.134Z,45.03
2018-11-23T16:07:48.440Z,36.37
2018-11-23T16:10:17.358Z,36.33
2018-11-23T16:12:46.268Z,39.70
2018-11-23T16:15:13.586Z,40.83
2018-11-23T16:17:40.829Z,38.03
2018-11-23T16:20:09.078Z,40.07
2018-11-23T16:22:36.247Z,42.20
2018-11-23T16:25:03.950Z,37.27
2018-11-23T16:27:31.112Z,39.23
2018-11-23T16:29:58.376Z,40.73
2018-11-23T16:32:25.566Z,46.00
2018-11-23T16:34:52.765Z,42.33
2018-11-23T16:37:19.980Z,46.73
2018-11-23T16:39:47.234Z,47.00
2018-11-23T16:42:14.461Z,39.30
2018-11-23T16:44:41.690Z,40.33
2018-11-23T16:47:08.996Z,43.20
2018-11-23T16:49:36.229Z,39.90
2018-11-23T16:52:03.518Z,44.10
2018-11-23T16:54:30.790Z,42.03
2018-11-23T16:56:58.049Z,48.83
2018-11-23T16:59:25.266Z,48.17
2018-11-23T17:01:52.449Z,43.60
2018-11-23T17:04:19.645Z,43.33
2018-11-23T17:06:46.873Z,42.00
2018-11-23T17:09:14.128Z,44.50
2018-11-23T17:11:41.345Z,41.47
2018-11-23T17:14:08.577Z,45.13
2018-11-23T17:16:35.777Z,38.73
2018-11-23T17:19:02.993Z,35.63
2018-11-23T17:21:30.210Z,42.53
2018-11-23T17:23:57.445Z,54.27
2018-11-23T17:26:24.685Z,47.87
2018-11-23T17:28:51.905Z,43.00
2018-11-23T17:31:19.090Z,40.37
2018-11-23T17:33:46.354Z,39.70
2018-11-23T17:36:13.542Z,42.83
2018-11-23T17:38:47.385Z,41.37
2018-11-23T17:41:07.958Z,45.13
2018-11-23T17:43:35.214Z,41.10
2018-11-23T17:46:02.454Z,45.23
2018-11-23T17:48:29.665Z,43.97
2018-11-23T17:50:57.932Z,45.23
2018-11-23T17:53:25.169Z,42.43
2018-11-23T17:55:52.410Z,47.23
2018-11-23T17:58:19.597Z,41.73
2018-11-23T18:00:46.799Z,44.20
2018-11-23T18:03:14.018Z,44.13
2018-11-23T18:05:41.254Z,41.57
2018-11-23T18:08:08.469Z,57.33
2018-11-23T18:10:35.728Z,46.50
2018-11-23T18:13:03.052Z,48.20
2018-11-23T18:15:31.458Z,70.20
2018-11-23T18:17:59.593Z,58.70
2018-11-23T18:20:27.613Z,48.87
2018-11-23T18:22:55.515Z,42.63
2018-11-23T18:25:24.970Z,43.37
2018-11-23T18:27:57.785Z,41.30
2018-11-23T18:30:24.927Z,43.53
2018-11-23T18:32:52.149Z,44.23
2018-11-23T18:35:19.414Z,42.70
2018-11-23T18:37:46.565Z,43.70
2018-11-23T18:40:13.737Z,48.27
2018-11-23T18:42:55.013Z,51.07
2018-11-23T18:50:55.500Z,48.20
2018-11-23T18:58:55.567Z,58.47
2018-11-23T19:01:32.504Z,53.77
2018-11-23T19:06:56.514Z,51.73
2018-11-23T19:12:10.372Z,48.40
2018-11-23T19:14:37.786Z,48.80
2018-11-23T19:17:04.973Z,45.93
2018-11-23T19:19:32.166Z,47.70
2018-11-23T19:21:59.415Z,52.77
2018-11-23T19:24:26.643Z,53.87
2018-11-23T19:26:53.881Z,43.37
2018-11-23T19:29:21.108Z,50.77
2018-11-23T19:31:48.337Z,48.97
2018-11-23T19:34:15.597Z,51.00
2018-11-23T19:36:42.839Z,51.30
2018-11-23T19:39:09.984Z,51.97
2018-11-23T19:41:37.344Z,49.97
2018-11-23T19:44:04.654Z,51.17
2018-11-23T19:46:31.943Z,62.30
2018-11-23T19:48:59.166Z,49.97
2018-11-23T19:51:26.409Z,58.60
2018-11-23T19:53:53.636Z,53.37
2018-11-23T19:56:20.858Z,67.67
2018-11-23T19:58:48.155Z,73.70
2018-11-23T20:01:15.373Z,56.67
2018-11-23T20:03:42.649Z,54.27
2018-11-23T20:06:09.875Z,51.60
2018-11-23T20:08:37.130Z,60.13
2018-11-23T20:11:04.377Z,61.57
2018-11-23T20:13:31.620Z,60.60
2018-11-23T20:15:58.877Z,60.17
2018-11-23T20:18:26.117Z,56.30
2018-11-23T20:20:53.401Z,55.37
2018-11-23T20:23:20.704Z,64.00
2018-11-23T20:25:47.945Z,51.23
2018-11-23T20:28:15.216Z,54.33
2018-11-23T20:30:42.718Z,59.93
2018-11-23T20:33:09.744Z,56.13
2018-11-23T20:35:37.050Z,55.97
2018-11-23T20:38:04.522Z,56.37
2018-11-23T20:40:31.806Z,51.37
2018-11-23T20:42:59.092Z,46.57
2018-11-23T20:45:26.373Z,65.07
2018-11-23T20:47:53.656Z,68.73
2018-11-23T20:50:20.917Z,52.53
2018-11-23T20:52:48.147Z,56.90
2018-11-23T20:55:15.833Z,60.90
2018-11-23T20:57:43.057Z,57.97
2018-11-23T21:00:11.665Z,64.27
2018-11-23T21:02:38.838Z,56.77
2018-11-23T21:05:06.805Z,57.97
2018-11-23T21:07:34.093Z,56.90
2018-11-23T21:10:01.454Z,61.43
2018-11-23T21:12:28.681Z,51.40
2018-11-23T21:14:55.922Z,57.77
2018-11-23T21:17:23.184Z,55.83
2018-11-23T21:19:50.439Z,67.78
2018-11-23T21:22:17.701Z,64.63
2018-11-23T21:24:44.857Z,57.73
2018-11-23T21:27:12.177Z,67.37
2018-11-23T21:29:39.698Z,63.40
2018-11-23T21:32:06.890Z,55.13
2018-11-23T21:34:34.062Z,52.43
2018-11-23T21:37:01.506Z,47.20
2018-11-23T21:39:28.794Z,47.17
2018-11-23T21:41:56.026Z,46.73
2018-11-23T21:44:23.509Z,44.00
2018-11-23T21:46:50.866Z,44.80
2018-11-23T21:49:18.169Z,46.63
2018-11-23T21:51:45.439Z,52.80
2018-11-23T21:54:12.650Z,48.90
2018-11-23T21:56:39.903Z,50.50
2018-11-23T21:59:07.138Z,46.60
2018-11-23T22:01:34.389Z,52.60
2018-11-23T22:04:06.396Z,46.80
2018-11-23T22:06:28.789Z,53.57
2018-11-23T22:08:56.097Z,47.93
2018-11-23T22:11:23.345Z,54.73
2018-11-23T22:13:50.594Z,47.03
2018-11-23T22:16:17.821Z,47.73
2018-11-23T22:18:45.059Z,50.77
2018-11-23T22:21:12.220Z,50.43
2018-11-23T22:23:39.473Z,59.50
2018-11-23T22:26:06.692Z,50.57
2018-11-23T22:28:34.002Z,50.50
2018-11-23T22:31:01.250Z,48.43
2018-11-23T22:33:28.485Z,52.13
2018-11-23T22:35:55.697Z,48.33
2018-11-23T22:38:22.849Z,48.80
2018-11-23T22:40:53.471Z,54.97
2018-11-23T22:48:53.825Z,47.33
2018-11-23T22:54:11.514Z,47.57
2018-11-23T22:56:38.726Z,47.40
2018-11-23T22:59:07.571Z,49.27
2018-11-23T23:07:08.321Z,49.60
2018-11-23T23:15:09.095Z,46.47
2018-11-23T23:23:08.900Z,48.27
2018-11-23T23:31:12.900Z,54.93
2018-11-23T23:33:40.041Z,57.07
2018-11-23T23:36:23.449Z,50.30
2018-11-23T23:38:54.058Z,50.87
2018-11-23T23:44:22.478Z,51.73
2018-11-23T23:47:02.762Z,50.00
2018-11-23T23:55:04.521Z,50.37
